sensor_id;sensor_type;location;lat;lon;timestamp;P1;durP1;ratioP1;P2;durP2;ratioP2
34978;SDS011;21185;50.978;13.720;2023-05-10T00:00:04;2.75;;;1.38;;
34978;SDS011;21185;50.978;13.720;2023-05-10T00:05:13;2.38;;;1.85;;
34978;SDS011;21185;50.978;13.720;2023-05-10T00:10:16;1.73;;;1.13;;
34978;SDS011;21185;50.978;13.720;2023-05-10T00:15:18;3.35;;;1.70;;
34978;SDS011;21185;50.978;13.720;2023-05-10T00:20:20;1.75;;;1.20;;
34978;SDS011;21185;50.978;13.720;2023-05-10T00:25:22;3.42;;;1.38;;
34978;SDS011;21185;50.978;13.720;2023-05-10T00:30:24;3.05;;;1.60;;
34978;SDS011;21185;50.978;13.720;2023-05-10T00:35:26;3.42;;;1.60;;
34978;SDS011;21185;50.978;13.720;2023-05-10T00:40:28;4.18;;;2.10;;
34978;SDS011;21185;50.978;13.720;2023-05-10T00:45:35;2.30;;;1.50;;
34978;SDS011;21185;50.978;13.720;2023-05-10T00:50:38;2.35;;;1.33;;
34978;SDS011;21185;50.978;13.720;2023-05-10T00:55:41;3.83;;;1.52;;
34978;SDS011;21185;50.978;13.720;2023-05-10T01:00:45;4.15;;;1.55;;
34978;SDS011;21185;50.978;13.720;2023-05-10T01:05:49;6.18;;;1.60;;
34978;SDS011;21185;50.978;13.720;2023-05-10T01:10:52;1.75;;;1.40;;
34978;SDS011;21185;50.978;13.720;2023-05-10T01:15:54;1.98;;;1.27;;
34978;SDS011;21185;50.978;13.720;2023-05-10T01:21:12;3.45;;;1.33;;
34978;SDS011;21185;50.978;13.720;2023-05-10T01:26:25;3.95;;;1.40;;
34978;SDS011;21185;50.978;13.720;2023-05-10T01:37:05;4.97;;;1.33;;
34978;SDS011;21185;50.978;13.720;2023-05-10T01:42:11;6.10;;;1.63;;
34978;SDS011;21185;50.978;13.720;2023-05-10T01:52:54;1.35;;;1.08;;
34978;SDS011;21185;50.978;13.720;2023-05-10T01:58:04;3.97;;;1.55;;
34978;SDS011;21185;50.978;13.720;2023-05-10T02:03:10;8.93;;;1.67;;
34978;SDS011;21185;50.978;13.720;2023-05-10T02:08:13;2.53;;;1.60;;
34978;SDS011;21185;50.978;13.720;2023-05-10T02:13:18;6.13;;;1.40;;
34978;SDS011;21185;50.978;13.720;2023-05-10T02:18:21;2.63;;;1.20;;
34978;SDS011;21185;50.978;13.720;2023-05-10T02:23:25;9.85;;;1.88;;
34978;SDS011;21185;50.978;13.720;2023-05-10T02:28:28;6.40;;;1.63;;
34978;SDS011;21185;50.978;13.720;2023-05-10T02:33:30;2.85;;;1.70;;
34978;SDS011;21185;50.978;13.720;2023-05-10T02:38:34;2.22;;;1.63;;
34978;SDS011;21185;50.978;13.720;2023-05-10T02:43:37;7.85;;;1.33;;
34978;SDS011;21185;50.978;13.720;2023-05-10T02:48:42;3.38;;;1.67;;
34978;SDS011;21185;50.978;13.720;2023-05-10T02:53:45;2.33;;;1.50;;
34978;SDS011;21185;50.978;13.720;2023-05-10T02:58:49;4.88;;;1.60;;
34978;SDS011;21185;50.978;13.720;2023-05-10T03:03:51;4.13;;;1.58;;
34978;SDS011;21185;50.978;13.720;2023-05-10T03:08:53;2.75;;;1.75;;
34978;SDS011;21185;50.978;13.720;2023-05-10T03:19:39;2.72;;;1.30;;
34978;SDS011;21185;50.978;13.720;2023-05-10T03:24:57;5.47;;;1.35;;
34978;SDS011;21185;50.978;13.720;2023-05-10T03:30:04;7.15;;;1.63;;
34978;SDS011;21185;50.978;13.720;2023-05-10T03:35:10;2.72;;;1.55;;
34978;SDS011;21185;50.978;13.720;2023-05-10T03:40:15;3.03;;;1.63;;
34978;SDS011;21185;50.978;13.720;2023-05-10T03:45:18;2.05;;;1.17;;
34978;SDS011;21185;50.978;13.720;2023-05-10T03:50:20;2.97;;;1.58;;
34978;SDS011;21185;50.978;13.720;2023-05-10T03:55:25;3.40;;;1.20;;
34978;SDS011;21185;50.978;13.720;2023-05-10T04:00:27;3.40;;;1.30;;
34978;SDS011;21185;50.978;13.720;2023-05-10T04:05:29;2.55;;;1.30;;
34978;SDS011;21185;50.978;13.720;2023-05-10T04:10:32;1.80;;;1.30;;
34978;SDS011;21185;50.978;13.720;2023-05-10T04:15:34;2.03;;;1.13;;
34978;SDS011;21185;50.978;13.720;2023-05-10T04:20:37;3.05;;;1.50;;
34978;SDS011;21185;50.978;13.720;2023-05-10T04:25:39;5.05;;;1.50;;
34978;SDS011;21185;50.978;13.720;2023-05-10T04:30:43;2.50;;;1.50;;
34978;SDS011;21185;50.978;13.720;2023-05-10T04:35:45;2.20;;;1.20;;
34978;SDS011;21185;50.978;13.720;2023-05-10T04:40:47;2.13;;;1.38;;
34978;SDS011;21185;50.978;13.720;2023-05-10T04:45:50;3.97;;;1.73;;
34978;SDS011;21185;50.978;13.720;2023-05-10T04:50:52;2.05;;;1.33;;
34978;SDS011;21185;50.978;13.720;2023-05-10T04:55:54;3.33;;;1.27;;
34978;SDS011;21185;50.978;13.720;2023-05-10T05:00:56;1.48;;;1.10;;
34978;SDS011;21185;50.978;13.720;2023-05-10T05:05:59;3.03;;;1.38;;
34978;SDS011;21185;50.978;13.720;2023-05-10T05:11:02;2.85;;;1.30;;
34978;SDS011;21185;50.978;13.720;2023-05-10T05:16:04;2.85;;;1.40;;
34978;SDS011;21185;50.978;13.720;2023-05-10T05:21:13;2.13;;;1.30;;
34978;SDS011;21185;50.978;13.720;2023-05-10T05:26:20;3.30;;;1.50;;
34978;SDS011;21185;50.978;13.720;2023-05-10T05:31:22;2.35;;;1.27;;
34978;SDS011;21185;50.978;13.720;2023-05-10T05:36:24;2.17;;;1.25;;
34978;SDS011;21185;50.978;13.720;2023-05-10T05:41:26;5.30;;;1.40;;
34978;SDS011;21185;50.978;13.720;2023-05-10T05:46:28;1.45;;;1.15;;
34978;SDS011;21185;50.978;13.720;2023-05-10T05:51:30;4.68;;;1.60;;
34978;SDS011;21185;50.978;13.720;2023-05-10T05:56:32;1.98;;;1.20;;
34978;SDS011;21185;50.978;13.720;2023-05-10T06:01:34;2.92;;;1.50;;
34978;SDS011;21185;50.978;13.720;2023-05-10T06:06:36;2.55;;;1.50;;
34978;SDS011;21185;50.978;13.720;2023-05-10T06:11:38;2.20;;;1.30;;
34978;SDS011;21185;50.978;13.720;2023-05-10T06:16:40;7.00;;;1.40;;
34978;SDS011;21185;50.978;13.720;2023-05-10T06:21:42;1.58;;;1.02;;
34978;SDS011;21185;50.978;13.720;2023-05-10T06:26:44;5.65;;;1.30;;
34978;SDS011;21185;50.978;13.720;2023-05-10T06:31:46;2.58;;;1.33;;
34978;SDS011;21185;50.978;13.720;2023-05-10T06:36:48;2.67;;;1.27;;
34978;SDS011;21185;50.978;13.720;2023-05-10T06:41:49;3.40;;;1.38;;
34978;SDS011;21185;50.978;13.720;2023-05-10T06:46:53;2.40;;;1.25;;
34978;SDS011;21185;50.978;13.720;2023-05-10T06:51:57;2.70;;;1.38;;
34978;SDS011;21185;50.978;13.720;2023-05-10T06:56:59;1.73;;;1.08;;
34978;SDS011;21185;50.978;13.720;2023-05-10T07:02:04;1.63;;;1.17;;
34978;SDS011;21185;50.978;13.720;2023-05-10T07:07:07;2.13;;;1.27;;
34978;SDS011;21185;50.978;13.720;2023-05-10T07:12:08;2.80;;;1.58;;
34978;SDS011;21185;50.978;13.720;2023-05-10T07:17:15;2.88;;;1.42;;
34978;SDS011;21185;50.978;13.720;2023-05-10T07:22:17;1.63;;;1.25;;
34978;SDS011;21185;50.978;13.720;2023-05-10T07:27:19;2.58;;;1.35;;
34978;SDS011;21185;50.978;13.720;2023-05-10T07:32:21;2.97;;;1.75;;
34978;SDS011;21185;50.978;13.720;2023-05-10T07:37:23;2.55;;;1.45;;
34978;SDS011;21185;50.978;13.720;2023-05-10T07:42:25;2.72;;;1.35;;
34978;SDS011;21185;50.978;13.720;2023-05-10T07:47:27;2.05;;;1.45;;
34978;SDS011;21185;50.978;13.720;2023-05-10T07:52:29;2.20;;;1.42;;
34978;SDS011;21185;50.978;13.720;2023-05-10T07:57:31;2.92;;;1.30;;
34978;SDS011;21185;50.978;13.720;2023-05-10T08:02:34;2.38;;;1.38;;
34978;SDS011;21185;50.978;13.720;2023-05-10T08:07:37;9.23;;;1.70;;
34978;SDS011;21185;50.978;13.720;2023-05-10T08:12:39;3.28;;;1.27;;
34978;SDS011;21185;50.978;13.720;2023-05-10T08:17:41;2.20;;;1.10;;
34978;SDS011;21185;50.978;13.720;2023-05-10T08:22:45;2.28;;;1.35;;
34978;SDS011;21185;50.978;13.720;2023-05-10T08:27:47;7.40;;;1.95;;
34978;SDS011;21185;50.978;13.720;2023-05-10T08:32:49;2.33;;;1.67;;
34978;SDS011;21185;50.978;13.720;2023-05-10T08:37:51;3.55;;;1.42;;
34978;SDS011;21185;50.978;13.720;2023-05-10T08:43:12;2.28;;;1.42;;
34978;SDS011;21185;50.978;13.720;2023-05-10T08:48:16;2.88;;;1.42;;
34978;SDS011;21185;50.978;13.720;2023-05-10T08:53:19;3.05;;;1.52;;
34978;SDS011;21185;50.978;13.720;2023-05-10T08:58:22;2.17;;;1.15;;
34978;SDS011;21185;50.978;13.720;2023-05-10T09:03:24;3.53;;;1.52;;
34978;SDS011;21185;50.978;13.720;2023-05-10T09:08:26;2.40;;;1.20;;
34978;SDS011;21185;50.978;13.720;2023-05-10T09:13:28;2.75;;;1.52;;
34978;SDS011;21185;50.978;13.720;2023-05-10T09:18:31;2.83;;;1.50;;
34978;SDS011;21185;50.978;13.720;2023-05-10T09:23:33;2.95;;;1.70;;
34978;SDS011;21185;50.978;13.720;2023-05-10T09:28:49;6.18;;;1.80;;
34978;SDS011;21185;50.978;13.720;2023-05-10T09:33:56;3.30;;;1.73;;
34978;SDS011;21185;50.978;13.720;2023-05-10T09:38:58;5.57;;;1.33;;
34978;SDS011;21185;50.978;13.720;2023-05-10T09:44:00;4.78;;;1.60;;
34978;SDS011;21185;50.978;13.720;2023-05-10T09:49:02;4.15;;;2.17;;
34978;SDS011;21185;50.978;13.720;2023-05-10T09:54:13;3.97;;;2.15;;
34978;SDS011;21185;50.978;13.720;2023-05-10T09:59:17;3.75;;;1.58;;
34978;SDS011;21185;50.978;13.720;2023-05-10T10:04:20;3.20;;;2.10;;
34978;SDS011;21185;50.978;13.720;2023-05-10T10:09:23;4.45;;;2.35;;
34978;SDS011;21185;50.978;13.720;2023-05-10T10:14:25;5.43;;;1.50;;
34978;SDS011;21185;50.978;13.720;2023-05-10T10:19:27;3.70;;;1.85;;
34978;SDS011;21185;50.978;13.720;2023-05-10T10:24:30;5.15;;;1.90;;
34978;SDS011;21185;50.978;13.720;2023-05-10T10:29:37;3.25;;;1.75;;
34978;SDS011;21185;50.978;13.720;2023-05-10T10:34:47;2.30;;;1.77;;
34978;SDS011;21185;50.978;13.720;2023-05-10T10:39:49;3.40;;;1.63;;
34978;SDS011;21185;50.978;13.720;2023-05-10T10:45:06;2.67;;;1.60;;
34978;SDS011;21185;50.978;13.720;2023-05-10T10:50:13;7.82;;;1.83;;
34978;SDS011;21185;50.978;13.720;2023-05-10T10:55:18;3.45;;;1.80;;
34978;SDS011;21185;50.978;13.720;2023-05-10T11:00:27;4.00;;;1.75;;
34978;SDS011;21185;50.978;13.720;2023-05-10T11:05:49;2.75;;;1.65;;
34978;SDS011;21185;50.978;13.720;2023-05-10T11:16:17;3.15;;;1.98;;
34978;SDS011;21185;50.978;13.720;2023-05-10T11:21:19;3.25;;;1.83;;
34978;SDS011;21185;50.978;13.720;2023-05-10T11:26:22;2.97;;;1.75;;
34978;SDS011;21185;50.978;13.720;2023-05-10T11:31:27;3.33;;;1.83;;
34978;SDS011;21185;50.978;13.720;2023-05-10T11:36:35;3.83;;;1.67;;
34978;SDS011;21185;50.978;13.720;2023-05-10T11:46:43;3.83;;;2.08;;
34978;SDS011;21185;50.978;13.720;2023-05-10T11:51:45;3.55;;;1.70;;
34978;SDS011;21185;50.978;13.720;2023-05-10T11:56:48;3.50;;;2.00;;
34978;SDS011;21185;50.978;13.720;2023-05-10T12:01:51;3.38;;;1.95;;
34978;SDS011;21185;50.978;13.720;2023-05-10T12:06:53;2.75;;;1.70;;
34978;SDS011;21185;50.978;13.720;2023-05-10T12:11:55;3.03;;;1.70;;
34978;SDS011;21185;50.978;13.720;2023-05-10T12:17:00;6.80;;;1.67;;
34978;SDS011;21185;50.978;13.720;2023-05-10T12:22:04;2.55;;;1.55;;
34978;SDS011;21185;50.978;13.720;2023-05-10T12:27:10;3.80;;;1.92;;
34978;SDS011;21185;50.978;13.720;2023-05-10T12:32:13;2.50;;;1.27;;
34978;SDS011;21185;50.978;13.720;2023-05-10T12:37:15;4.35;;;1.90;;
34978;SDS011;21185;50.978;13.720;2023-05-10T12:42:17;2.40;;;1.70;;
34978;SDS011;21185;50.978;13.720;2023-05-10T12:47:19;4.82;;;1.77;;
34978;SDS011;21185;50.978;13.720;2023-05-10T12:52:21;3.42;;;1.48;;
34978;SDS011;21185;50.978;13.720;2023-05-10T12:57:23;8.65;;;2.38;;
34978;SDS011;21185;50.978;13.720;2023-05-10T13:02:25;7.90;;;2.30;;
34978;SDS011;21185;50.978;13.720;2023-05-10T13:07:27;2.63;;;1.75;;
34978;SDS011;21185;50.978;13.720;2023-05-10T13:12:29;2.22;;;1.35;;
34978;SDS011;21185;50.978;13.720;2023-05-10T13:17:31;2.72;;;1.50;;
34978;SDS011;21185;50.978;13.720;2023-05-10T13:22:34;2.33;;;1.50;;
34978;SDS011;21185;50.978;13.720;2023-05-10T13:27:41;3.00;;;1.65;;
34978;SDS011;21185;50.978;13.720;2023-05-10T13:32:43;2.20;;;1.70;;
34978;SDS011;21185;50.978;13.720;2023-05-10T13:37:45;3.50;;;1.65;;
34978;SDS011;21185;50.978;13.720;2023-05-10T13:42:47;1.95;;;1.33;;
34978;SDS011;21185;50.978;13.720;2023-05-10T13:47:49;2.03;;;1.23;;
34978;SDS011;21185;50.978;13.720;2023-05-10T13:52:50;3.25;;;1.60;;
34978;SDS011;21185;50.978;13.720;2023-05-10T13:57:52;2.90;;;1.58;;
34978;SDS011;21185;50.978;13.720;2023-05-10T14:02:54;2.65;;;1.48;;
34978;SDS011;21185;50.978;13.720;2023-05-10T14:07:57;2.35;;;1.50;;
34978;SDS011;21185;50.978;13.720;2023-05-10T14:12:59;2.00;;;1.55;;
34978;SDS011;21185;50.978;13.720;2023-05-10T14:18:01;2.42;;;1.40;;
34978;SDS011;21185;50.978;13.720;2023-05-10T14:23:03;2.42;;;1.40;;
34978;SDS011;21185;50.978;13.720;2023-05-10T14:28:05;2.20;;;1.40;;
34978;SDS011;21185;50.978;13.720;2023-05-10T14:33:07;2.55;;;1.50;;
34978;SDS011;21185;50.978;13.720;2023-05-10T14:38:09;3.97;;;1.42;;
34978;SDS011;21185;50.978;13.720;2023-05-10T14:43:12;2.50;;;1.38;;
34978;SDS011;21185;50.978;13.720;2023-05-10T14:48:14;2.03;;;1.50;;
34978;SDS011;21185;50.978;13.720;2023-05-10T14:53:18;2.25;;;1.45;;
34978;SDS011;21185;50.978;13.720;2023-05-10T14:58:20;5.75;;;2.35;;
34978;SDS011;21185;50.978;13.720;2023-05-10T15:03:22;3.28;;;1.52;;
34978;SDS011;21185;50.978;13.720;2023-05-10T15:08:25;3.65;;;1.58;;
34978;SDS011;21185;50.978;13.720;2023-05-10T15:13:27;3.15;;;1.33;;
34978;SDS011;21185;50.978;13.720;2023-05-10T15:18:29;3.47;;;1.80;;
34978;SDS011;21185;50.978;13.720;2023-05-10T15:23:31;2.03;;;1.30;;
34978;SDS011;21185;50.978;13.720;2023-05-10T15:28:33;2.00;;;1.33;;
34978;SDS011;21185;50.978;13.720;2023-05-10T15:33:36;2.20;;;1.30;;
34978;SDS011;21185;50.978;13.720;2023-05-10T15:38:40;7.82;;;1.80;;
34978;SDS011;21185;50.978;13.720;2023-05-10T15:43:42;3.97;;;1.98;;
34978;SDS011;21185;50.978;13.720;2023-05-10T15:48:43;3.60;;;2.15;;
34978;SDS011;21185;50.978;13.720;2023-05-10T15:53:46;4.15;;;1.98;;
34978;SDS011;21185;50.978;13.720;2023-05-10T15:59:07;3.95;;;2.03;;
34978;SDS011;21185;50.978;13.720;2023-05-10T16:04:11;6.63;;;3.35;;
34978;SDS011;21185;50.978;13.720;2023-05-10T16:09:13;3.20;;;2.03;;
34978;SDS011;21185;50.978;13.720;2023-05-10T16:14:16;3.58;;;1.92;;
34978;SDS011;21185;50.978;13.720;2023-05-10T16:19:18;3.97;;;2.15;;
34978;SDS011;21185;50.978;13.720;2023-05-10T16:24:20;3.28;;;2.05;;
34978;SDS011;21185;50.978;13.720;2023-05-10T16:29:22;10.10;;;1.98;;
34978;SDS011;21185;50.978;13.720;2023-05-10T16:34:23;3.08;;;2.08;;
34978;SDS011;21185;50.978;13.720;2023-05-10T16:39:28;3.67;;;1.85;;
34978;SDS011;21185;50.978;13.720;2023-05-10T16:44:30;3.15;;;1.75;;
34978;SDS011;21185;50.978;13.720;2023-05-10T16:49:34;3.30;;;1.63;;
34978;SDS011;21185;50.978;13.720;2023-05-10T16:54:41;4.53;;;2.03;;
34978;SDS011;21185;50.978;13.720;2023-05-10T16:59:43;4.82;;;2.58;;
34978;SDS011;21185;50.978;13.720;2023-05-10T17:04:44;4.18;;;1.95;;
34978;SDS011;21185;50.978;13.720;2023-05-10T17:09:47;3.10;;;1.98;;
34978;SDS011;21185;50.978;13.720;2023-05-10T17:14:49;3.10;;;1.80;;
34978;SDS011;21185;50.978;13.720;2023-05-10T17:19:51;6.57;;;2.10;;
34978;SDS011;21185;50.978;13.720;2023-05-10T17:24:53;3.72;;;2.00;;
34978;SDS011;21185;50.978;13.720;2023-05-10T17:29:55;4.10;;;2.22;;
34978;SDS011;21185;50.978;13.720;2023-05-10T17:34:58;2.53;;;1.60;;
34978;SDS011;21185;50.978;13.720;2023-05-10T17:40:00;5.15;;;1.98;;
34978;SDS011;21185;50.978;13.720;2023-05-10T17:45:04;4.40;;;2.20;;
34978;SDS011;21185;50.978;13.720;2023-05-10T17:50:07;4.30;;;1.90;;
34978;SDS011;21185;50.978;13.720;2023-05-10T17:55:11;4.25;;;2.22;;
34978;SDS011;21185;50.978;13.720;2023-05-10T18:00:14;3.85;;;1.95;;
34978;SDS011;21185;50.978;13.720;2023-05-10T18:05:16;4.82;;;2.90;;
34978;SDS011;21185;50.978;13.720;2023-05-10T18:10:19;4.43;;;2.38;;
34978;SDS011;21185;50.978;13.720;2023-05-10T18:15:21;4.72;;;2.67;;
34978;SDS011;21185;50.978;13.720;2023-05-10T18:20:23;3.60;;;1.88;;
34978;SDS011;21185;50.978;13.720;2023-05-10T18:25:25;3.72;;;2.10;;
34978;SDS011;21185;50.978;13.720;2023-05-10T18:30:27;3.85;;;1.77;;
34978;SDS011;21185;50.978;13.720;2023-05-10T18:35:29;3.63;;;1.98;;
34978;SDS011;21185;50.978;13.720;2023-05-10T18:40:31;3.83;;;1.90;;
34978;SDS011;21185;50.978;13.720;2023-05-10T18:45:33;3.25;;;1.83;;
34978;SDS011;21185;50.978;13.720;2023-05-10T18:50:37;2.95;;;1.50;;
34978;SDS011;21185;50.978;13.720;2023-05-10T18:55:39;2.78;;;1.25;;
34978;SDS011;21185;50.978;13.720;2023-05-10T19:00:41;4.68;;;1.70;;
34978;SDS011;21185;50.978;13.720;2023-05-10T19:05:43;2.60;;;1.55;;
34978;SDS011;21185;50.978;13.720;2023-05-10T19:10:47;2.58;;;1.30;;
34978;SDS011;21185;50.978;13.720;2023-05-10T19:21:24;2.60;;;1.30;;
34978;SDS011;21185;50.978;13.720;2023-05-10T19:26:27;1.98;;;1.08;;
34978;SDS011;21185;50.978;13.720;2023-05-10T19:31:29;2.97;;;1.30;;
34978;SDS011;21185;50.978;13.720;2023-05-10T19:36:31;2.88;;;1.05;;
34978;SDS011;21185;50.978;13.720;2023-05-10T19:41:34;2.08;;;1.08;;
34978;SDS011;21185;50.978;13.720;2023-05-10T19:46:37;2.60;;;1.20;;
34978;SDS011;21185;50.978;13.720;2023-05-10T19:51:40;1.67;;;1.02;;
34978;SDS011;21185;50.978;13.720;2023-05-10T19:56:42;3.05;;;1.20;;
34978;SDS011;21185;50.978;13.720;2023-05-10T20:01:44;3.25;;;1.48;;
34978;SDS011;21185;50.978;13.720;2023-05-10T20:06:46;3.63;;;1.27;;
34978;SDS011;21185;50.978;13.720;2023-05-10T20:11:48;1.83;;;1.20;;
34978;SDS011;21185;50.978;13.720;2023-05-10T20:16:50;2.63;;;1.17;;
34978;SDS011;21185;50.978;13.720;2023-05-10T20:21:52;3.65;;;1.38;;
34978;SDS011;21185;50.978;13.720;2023-05-10T20:26:56;3.58;;;1.67;;
34978;SDS011;21185;50.978;13.720;2023-05-10T20:31:58;2.25;;;1.30;;
34978;SDS011;21185;50.978;13.720;2023-05-10T20:37:01;2.42;;;1.45;;
34978;SDS011;21185;50.978;13.720;2023-05-10T20:42:04;2.03;;;1.38;;
34978;SDS011;21185;50.978;13.720;2023-05-10T20:47:06;2.35;;;1.17;;
34978;SDS011;21185;50.978;13.720;2023-05-10T20:52:09;1.85;;;1.15;;
34978;SDS011;21185;50.978;13.720;2023-05-10T20:57:11;10.02;;;3.97;;
34978;SDS011;21185;50.978;13.720;2023-05-10T21:02:13;9.73;;;3.80;;
34978;SDS011;21185;50.978;13.720;2023-05-10T21:07:15;4.85;;;2.20;;
34978;SDS011;21185;50.978;13.720;2023-05-10T21:12:17;7.10;;;1.70;;
34978;SDS011;21185;50.978;13.720;2023-05-10T21:17:19;2.45;;;1.42;;
34978;SDS011;21185;50.978;13.720;2023-05-10T21:22:21;3.53;;;1.70;;
34978;SDS011;21185;50.978;13.720;2023-05-10T21:27:23;4.43;;;2.20;;
34978;SDS011;21185;50.978;13.720;2023-05-10T21:32:25;9.77;;;2.67;;
34978;SDS011;21185;50.978;13.720;2023-05-10T21:37:27;6.35;;;2.78;;
34978;SDS011;21185;50.978;13.720;2023-05-10T21:42:29;5.93;;;2.13;;
34978;SDS011;21185;50.978;13.720;2023-05-10T21:47:32;5.95;;;2.40;;
34978;SDS011;21185;50.978;13.720;2023-05-10T21:52:35;5.18;;;2.05;;
34978;SDS011;21185;50.978;13.720;2023-05-10T21:57:37;7.70;;;2.53;;
34978;SDS011;21185;50.978;13.720;2023-05-10T22:02:39;8.13;;;2.80;;
34978;SDS011;21185;50.978;13.720;2023-05-10T22:07:41;5.90;;;2.10;;
34978;SDS011;21185;50.978;13.720;2023-05-10T22:12:43;6.18;;;2.00;;
34978;SDS011;21185;50.978;13.720;2023-05-10T22:17:45;3.58;;;2.40;;
34978;SDS011;21185;50.978;13.720;2023-05-10T22:22:46;5.07;;;1.90;;
34978;SDS011;21185;50.978;13.720;2023-05-10T22:27:48;3.80;;;2.05;;
34978;SDS011;21185;50.978;13.720;2023-05-10T22:32:51;2.97;;;1.90;;
34978;SDS011;21185;50.978;13.720;2023-05-10T22:37:53;4.47;;;1.95;;
34978;SDS011;21185;50.978;13.720;2023-05-10T22:42:54;4.00;;;1.67;;
34978;SDS011;21185;50.978;13.720;2023-05-10T22:47:57;3.85;;;1.75;;
34978;SDS011;21185;50.978;13.720;2023-05-10T22:53:00;3.65;;;1.83;;
34978;SDS011;21185;50.978;13.720;2023-05-10T22:58:01;3.63;;;2.00;;
34978;SDS011;21185;50.978;13.720;2023-05-10T23:03:04;3.97;;;2.05;;
34978;SDS011;21185;50.978;13.720;2023-05-10T23:08:07;3.88;;;2.28;;
34978;SDS011;21185;50.978;13.720;2023-05-10T23:13:09;3.65;;;1.83;;
34978;SDS011;21185;50.978;13.720;2023-05-10T23:18:11;2.70;;;1.73;;
34978;SDS011;21185;50.978;13.720;2023-05-10T23:23:13;4.30;;;1.95;;
34978;SDS011;21185;50.978;13.720;2023-05-10T23:28:16;2.95;;;1.90;;
34978;SDS011;21185;50.978;13.720;2023-05-10T23:33:18;4.68;;;1.98;;
34978;SDS011;21185;50.978;13.720;2023-05-10T23:38:20;6.03;;;1.92;;
34978;SDS011;21185;50.978;13.720;2023-05-10T23:43:22;3.53;;;1.92;;
34978;SDS011;21185;50.978;13.720;2023-05-10T23:48:25;9.50;;;1.92;;
34978;SDS011;21185;50.978;13.720;2023-05-10T23:53:27;4.03;;;2.00;;
34978;SDS011;21185;50.978;13.720;2023-05-10T23:58:29;3.75;;;2.13;;
